Time;durP1;ratioP1;P1;durP2;ratioP2;P2;SDS_P1;SDS_P2;PMS_P1;PMS_P2;Temp;Humidity;BMP_temperature;BMP_pressure;BME280_temperature;BME280_humidity;BME280_pressure;Samples;Min_cycle;Max_cycle;Signal;HPM_P1;HPM_P2
2023/04/27 00:00:10;;;;;;;8.15;4.93;;;5.30;99.90;;;5.05;93.18;101114.56;5056349;28;20361;-74
2023/04/27 00:02:37;;;;;;;9.75;4.85;;;5.30;99.90;;;5.02;93.77;101107.63;5079985;28;20044;-74
2023/04/27 00:05:04;;;;;;;10.48;4.43;;;5.40;99.90;;;5.10;92.93;101112.19;5082131;28;20028;-74
2023/04/27 00:07:30;;;;;;;8.18;4.43;;;5.40;99.90;;;5.09;93.78;101104.28;5080552;28;20032;-74
2023/04/27 00:09:56;;;;;;;11.25;5.05;;;5.40;99.90;;;5.11;93.42;101108.47;5088524;28;20104;-74
2023/04/27 00:12:22;;;;;;;14.93;4.95;;;5.40;99.90;;;5.15;93.24;101104.41;5085079;28;20503;-74
2023/04/27 00:14:48;;;;;;;10.75;5.18;;;5.40;99.90;;;5.16;93.99;101102.56;5085690;28;20037;-74
2023/04/27 00:17:14;;;;;;;11.05;5.00;;;5.50;99.90;;;5.16;92.95;101099.88;5065230;28;20040;-73
2023/04/27 00:19:40;;;;;;;10.20;5.20;;;5.50;99.90;;;5.16;92.54;101097.16;5092156;28;20036;-74
2023/04/27 00:22:07;;;;;;;11.45;5.18;;;5.50;99.90;;;5.19;92.51;101091.41;5055620;28;20035;-73
2023/04/27 00:24:33;;;;;;;9.35;4.85;;;5.50;99.90;;;5.27;91.93;101090.56;5087605;28;20040;-74
2023/04/27 00:26:59;;;;;;;12.02;5.05;;;5.60;99.90;;;5.31;90.99;101100.00;5039291;28;20403;-74
2023/04/27 00:29:25;;;;;;;9.65;4.80;;;5.70;99.90;;;5.36;89.88;101091.41;5085431;28;20060;-74
2023/04/27 00:31:50;;;;;;;11.00;4.93;;;5.70;99.90;;;5.33;90.22;101101.53;5090042;28;20060;-74
2023/04/27 00:34:16;;;;;;;9.85;4.35;;;5.70;99.90;;;5.30;89.37;101096.47;5066333;28;20029;-74
2023/04/27 00:36:42;;;;;;;11.18;5.10;;;5.70;99.90;;;5.29;89.49;101089.34;5059126;28;20522;-74
2023/04/27 00:39:08;;;;;;;11.82;4.55;;;5.70;99.90;;;5.24;89.58;101093.59;5071559;28;20044;-74
2023/04/27 00:41:38;;;;;;;10.70;5.00;;;5.70;99.90;;;5.28;87.96;101090.38;5041012;28;20107;-74
2023/04/27 00:44:04;;;;;;;12.80;5.40;;;5.70;99.90;;;5.28;87.95;101103.91;5093503;28;20122;-75
2023/04/27 00:46:31;;;;;;;12.85;4.70;;;5.70;99.90;;;5.32;87.11;101093.59;5062455;28;20058;-75
2023/04/27 00:48:57;;;;;;;8.77;4.70;;;5.80;99.90;;;5.30;86.57;101101.91;5089556;28;20031;-75
2023/04/27 00:51:29;;;;;;;10.93;4.68;;;5.80;99.90;;;5.39;86.40;101099.16;5084967;28;20734;-74
2023/04/27 00:53:57;;;;;;;11.82;4.47;;;5.90;99.90;;;5.46;85.57;101095.59;5061124;28;20553;-73
2023/04/27 00:56:23;;;;;;;9.55;4.38;;;5.80;99.90;;;5.41;85.95;101102.53;5058100;28;20043;-74
2023/04/27 00:58:49;;;;;;;9.48;4.57;;;5.80;99.90;;;5.46;86.69;101097.47;5088123;28;20036;-74
2023/04/27 01:01:15;;;;;;;9.82;4.63;;;5.80;99.90;;;5.36;86.61;101096.81;5056787;28;20522;-74
2023/04/27 01:03:41;;;;;;;13.55;4.90;;;5.70;99.90;;;5.37;88.09;101112.03;5059330;28;20047;-74
2023/04/27 01:06:07;;;;;;;11.10;4.72;;;5.70;99.90;;;5.31;87.48;101102.72;5082276;28;20035;-74
2023/04/27 01:08:32;;;;;;;10.88;5.22;;;5.60;99.90;;;5.19;88.67;101099.53;5091520;28;20078;-74
2023/04/27 01:11:00;;;;;;;;;;;5.70;99.90;;;5.28;87.91;101093.06;5074678;28;20028;-74
2023/04/27 01:13:26;;;;;;;11.70;5.43;;;5.80;99.90;;;5.32;87.76;101102.56;5091105;28;19920;-74
2023/04/27 01:15:54;;;;;;;9.00;5.32;;;5.80;99.90;;;5.21;87.69;101111.00;5070553;28;20388;-74
2023/04/27 01:18:19;;;;;;;12.45;5.20;;;5.70;99.90;;;5.22;88.65;101098.34;5091136;28;20043;-74
2023/04/27 01:20:45;;;;;;;11.85;5.50;;;5.70;99.90;;;5.19;88.68;101107.63;5091281;28;20043;-74
2023/04/27 01:23:14;;;;;;;12.07;5.68;;;5.70;99.90;;;5.17;88.66;101106.97;5081068;28;20081;-74
2023/04/27 01:25:41;;;;;;;12.05;5.00;;;5.70;99.90;;;5.18;89.17;101117.63;5074231;28;20043;-74
2023/04/27 01:28:07;;;;;;;11.20;5.28;;;5.60;99.90;;;5.13;89.42;101114.56;5059690;28;20045;-73
2023/04/27 01:30:33;;;;;;;7.85;4.28;;;5.60;99.90;;;4.96;90.19;101129.94;5055599;28;20043;-75
2023/04/27 01:32:58;;;;;;;9.95;4.60;;;5.50;99.90;;;4.94;89.48;101123.84;5084561;28;20450;-75
2023/04/27 01:35:24;;;;;;;11.88;5.20;;;5.60;99.90;;;4.92;90.52;101131.28;5085242;28;20036;-74
2023/04/27 01:37:50;;;;;;;12.95;5.72;;;5.50;99.90;;;4.82;89.98;101119.81;5068471;28;20050;-75
2023/04/27 01:40:16;;;;;;;17.38;5.65;;;5.40;99.90;;;4.73;90.80;101127.06;5083875;28;20028;-74
2023/04/27 01:42:42;;;;;;;13.82;5.13;;;5.40;99.90;;;4.68;91.39;101118.59;5068840;28;20032;-74
2023/04/27 01:45:09;;;;;;;10.10;5.32;;;5.30;99.90;;;4.69;92.58;101139.22;5072867;28;20460;-74
2023/04/27 01:47:36;;;;;;;13.05;5.13;;;5.20;99.90;;;4.63;93.03;101145.25;5051433;28;20032;-75
2023/04/27 01:50:02;;;;;;;14.95;5.90;;;5.20;99.90;;;4.63;92.47;101146.13;5067452;28;20526;-74
2023/04/27 01:52:28;;;;;;;14.40;5.40;;;5.20;99.90;;;4.65;92.65;101146.78;5055084;28;20124;-74
2023/04/27 01:54:54;;;;;;;11.80;5.63;;;5.20;99.90;;;4.60;92.64;101151.84;5084774;28;20040;-75
2023/04/27 01:57:21;;;;;;;12.20;5.60;;;5.20;99.90;;;4.54;92.12;101149.81;5062403;28;20039;-75
2023/04/27 01:59:47;;;;;;;11.68;5.72;;;5.30;99.90;;;4.76;91.72;101164.56;5078796;28;20029;-74
2023/04/27 02:02:13;;;;;;;10.93;5.07;;;5.30;99.90;;;4.71;92.63;101166.91;5055638;28;20094;-74
2023/04/27 02:04:38;;;;;;;12.00;5.72;;;5.30;99.90;;;4.69;92.20;101167.06;5055476;28;20036;-74
2023/04/27 02:07:05;;;;;;;11.57;5.40;;;5.30;99.90;;;4.69;91.84;101169.78;5089118;28;20039;-74
2023/04/27 02:09:31;;;;;;;11.77;5.20;;;5.30;99.90;;;4.79;91.88;101182.31;5080636;28;20483;-75
2023/04/27 02:11:56;;;;;;;13.63;5.00;;;5.20;99.90;;;4.62;91.66;101182.25;5089965;28;20063;-74
2023/04/27 02:14:22;;;;;;;12.73;5.20;;;5.20;99.90;;;4.69;91.69;101190.56;5066628;28;20086;-74
2023/04/27 02:16:48;;;;;;;11.70;5.35;;;5.10;99.90;;;4.56;91.89;101186.47;5082912;28;20497;-74
2023/04/27 02:19:13;;;;;;;10.73;4.90;;;5.10;99.90;;;4.56;91.43;101186.47;5059265;28;20047;-74
2023/04/27 02:21:40;;;;;;;14.60;5.43;;;5.10;99.90;;;4.50;92.67;101187.13;5090562;28;20433;-74
2023/04/27 02:24:06;;;;;;;10.98;4.65;;;5.00;99.90;;;4.41;92.91;101178.13;5078422;28;20098;-74
2023/04/27 02:26:31;;;;;;;11.40;5.43;;;5.00;99.90;;;4.35;93.03;101191.44;5061201;28;20078;-75
2023/04/27 02:28:58;;;;;;;13.10;5.40;;;4.80;99.90;;;4.23;94.61;101191.75;5054571;28;20040;-74
2023/04/27 02:31:23;;;;;;;12.70;5.97;;;4.70;99.90;;;4.22;95.03;101205.41;5066835;28;20373;-74
2023/04/27 02:33:49;;;;;;;14.98;5.15;;;4.60;99.90;;;4.12;95.16;101192.88;5088366;28;20391;-74
2023/04/27 02:36:16;;;;;;;10.27;4.90;;;4.50;99.90;;;4.00;96.11;101196.88;5090317;28;20051;-74
2023/04/27 02:38:41;;;;;;;14.00;5.20;;;4.40;99.90;;;3.93;97.08;101204.75;5058941;28;20372;-74
2023/04/27 02:41:09;;;;;;;13.77;5.85;;;4.20;99.90;;;3.88;97.45;101199.81;5066692;28;20134;-74
2023/04/27 02:43:34;;;;;;;12.23;5.65;;;4.20;99.90;;;3.70;98.22;101197.19;5054672;28;20055;-74
2023/04/27 02:46:04;;;;;;;12.90;5.57;;;4.10;99.90;;;3.77;97.98;101210.03;5069579;28;20090;-74
2023/04/27 02:48:30;;;;;;;11.75;4.88;;;4.00;99.90;;;3.64;98.76;101194.25;5085092;28;20040;-74
2023/04/27 02:50:56;;;;;;;11.55;5.07;;;4.00;99.90;;;3.67;99.16;101196.63;5096010;28;20113;-75
2023/04/27 02:53:22;;;;;;;13.30;5.43;;;4.00;99.90;;;3.56;99.39;101186.94;5088652;28;20456;-74
2023/04/27 02:55:48;;;;;;;11.93;5.20;;;3.90;99.90;;;3.52;99.72;101199.06;5057605;28;20455;-74
2023/04/27 02:58:16;;;;;;;12.45;5.07;;;3.80;99.90;;;3.47;99.63;101193.28;5055257;28;20106;-75
2023/04/27 03:00:42;;;;;;;10.20;5.03;;;3.80;99.90;;;3.48;99.67;101192.28;5071978;28;20032;-74
2023/04/27 03:03:11;;;;;;;11.05;4.85;;;3.70;99.90;;;3.39;100.00;101192.22;5059159;28;20311;-74
2023/04/27 03:05:37;;;;;;;11.30;5.45;;;3.70;99.90;;;3.36;100.00;101195.25;5053941;28;20033;-74
2023/04/27 03:08:03;;;;;;;8.75;5.25;;;3.50;99.90;;;3.19;100.00;101193.41;5063089;28;20040;-74
2023/04/27 03:10:29;;;;;;;12.55;5.90;;;3.30;99.90;;;3.01;100.00;101188.84;5082579;28;20044;-74
2023/04/27 03:12:55;;;;;;;10.68;5.60;;;3.10;99.90;;;2.87;100.00;101206.38;5037250;28;20055;-74
2023/04/27 03:15:21;;;;;;;9.05;5.22;;;3.00;99.90;;;2.70;100.00;101205.38;5054201;28;20062;-74
2023/04/27 03:17:47;;;;;;;10.70;5.47;;;2.80;99.90;;;2.53;100.00;101193.56;5083121;28;20048;-74
2023/04/27 03:20:13;;;;;;;8.93;5.00;;;2.60;99.90;;;2.48;100.00;101204.78;5053857;28;20031;-74
2023/04/27 03:22:38;;;;;;;13.40;5.78;;;2.50;99.90;;;2.36;100.00;101200.59;5078896;28;20059;-74
2023/04/27 03:25:06;;;;;;;11.38;5.45;;;2.50;99.90;;;2.28;100.00;101196.81;5082965;28;20025;-74
2023/04/27 03:27:31;;;;;;;15.73;6.10;;;2.40;99.90;;;2.15;100.00;101189.06;5054206;28;20052;-74
2023/04/27 03:29:57;;;;;;;11.70;5.70;;;2.30;99.90;;;2.11;100.00;101203.81;5062428;28;20037;-74
2023/04/27 03:32:23;;;;;;;12.20;5.40;;;2.20;99.90;;;2.05;100.00;101201.72;5084062;28;20498;-74
2023/04/27 03:34:48;;;;;;;10.65;5.70;;;2.10;99.90;;;2.06;100.00;101214.16;5054668;28;20503;-74
2023/04/27 03:37:14;;;;;;;15.00;5.40;;;2.10;99.90;;;1.97;100.00;101198.91;5057795;28;20036;-74
2023/04/27 03:39:40;;;;;;;11.32;6.07;;;2.10;99.90;;;1.91;100.00;101204.88;5072883;28;20476;-74
2023/04/27 03:42:07;;;;;;;17.08;5.90;;;2.00;99.90;;;1.92;100.00;101211.97;5058378;28;20503;-73
2023/04/27 03:44:35;;;;;;;13.93;5.78;;;2.10;99.90;;;1.97;100.00;101217.75;5089410;28;20042;-74
2023/04/27 03:47:01;;;;;;;16.00;5.88;;;2.10;99.90;;;2.07;100.00;101232.00;5061330;28;20036;-74
2023/04/27 03:49:26;;;;;;;14.27;5.85;;;2.20;99.90;;;2.15;100.00;101231.28;5065092;28;20100;-74
2023/04/27 03:51:52;;;;;;;11.15;5.85;;;2.20;99.90;;;2.14;100.00;101226.91;5057499;28;20029;-74
2023/04/27 03:54:18;;;;;;;12.40;5.78;;;2.20;99.90;;;2.10;100.00;101231.72;5076391;28;20040;-74
2023/04/27 03:56:45;;;;;;;15.63;6.07;;;2.20;99.90;;;2.03;100.00;101229.78;5054429;28;20038;-74
2023/04/27 03:59:11;;;;;;;12.25;5.95;;;2.20;99.90;;;1.96;100.00;101224.97;5056023;28;20039;-74
2023/04/27 04:01:42;;;;;;;11.98;6.03;;;2.10;99.90;;;1.93;100.00;101227.94;5041515;28;20067;-74
2023/04/27 04:04:07;;;;;;;13.82;5.90;;;2.10;99.90;;;1.89;100.00;101233.78;5055204;28;20044;-74
2023/04/27 04:06:33;;;;;;;12.32;5.75;;;2.00;99.90;;;1.81;100.00;101224.56;5057898;28;20035;-74
2023/04/27 04:08:59;;;;;;;12.30;5.85;;;2.00;99.90;;;1.78;100.00;101227.56;5081379;28;20037;-74
2023/04/27 04:11:25;;;;;;;11.95;5.18;;;1.90;99.90;;;1.75;100.00;101230.53;5065020;28;20534;-75
2023/04/27 04:13:55;;;;;;;13.90;6.18;;;1.80;99.90;;;1.70;100.00;101228.28;5064232;28;20060;-74
2023/04/27 04:16:20;;;;;;;14.75;6.68;;;1.80;99.90;;;1.58;100.00;101213.31;5057560;28;20102;-74
2023/04/27 04:18:46;;;;;;;12.93;6.47;;;1.80;99.90;;;1.67;100.00;101235.81;5088664;28;20077;-74
2023/04/27 04:21:13;;;;;;;15.60;6.10;;;1.70;99.90;;;1.58;100.00;101243.72;5076430;28;20042;-75
2023/04/27 04:23:39;;;;;;;13.45;6.28;;;1.70;99.90;;;1.49;100.00;101239.22;5067387;28;20040;-75
2023/04/27 04:26:07;;;;;;;13.30;5.97;;;1.60;99.90;;;1.49;100.00;101247.28;5075298;28;20031;-74
2023/04/27 04:28:34;;;;;;;;;;;1.50;99.90;;;1.44;100.00;101241.47;5055703;28;20052;-74
2023/04/27 04:31:01;;;;;;;10.55;5.65;;;1.50;99.90;;;1.38;100.00;101247.44;5088420;28;19926;-73
2023/04/27 04:33:27;;;;;;;13.32;5.82;;;1.50;99.90;;;1.33;100.00;101249.72;5057670;28;20047;-74
2023/04/27 04:35:54;;;;;;;15.48;6.00;;;1.40;99.90;;;1.29;100.00;101251.81;5068797;28;20024;-74
2023/04/27 04:38:20;;;;;;;17.23;7.00;;;1.40;99.90;;;1.37;100.00;101245.75;5091644;28;20036;-74
2023/04/27 04:40:46;;;;;;;16.15;7.07;;;1.50;99.90;;;1.41;100.00;101255.22;5074581;28;20491;-74
2023/04/27 04:43:12;;;;;;;15.93;6.18;;;1.50;99.90;;;1.45;100.00;101251.25;5092727;28;20364;-74
2023/04/27 04:45:37;;;;;;;16.40;7.20;;;1.60;99.90;;;1.39;100.00;101225.75;5058444;28;20446;-74
2023/04/27 04:48:03;;;;;;;17.70;6.95;;;1.70;99.90;;;1.67;100.00;101254.63;5085359;28;20040;-74
2023/04/27 04:50:29;;;;;;;14.30;6.65;;;1.80;99.90;;;1.76;100.00;101245.69;5069579;28;20058;-75
2023/04/27 04:52:55;;;;;;;14.95;7.53;;;1.80;99.90;;;1.85;100.00;101255.56;5096353;28;20452;-75
2023/04/27 04:55:21;;;;;;;16.40;6.80;;;2.00;99.90;;;1.91;100.00;101247.94;5100546;28;20032;-75
2023/04/27 04:57:47;;;;;;;21.38;7.55;;;2.00;99.90;;;2.02;100.00;101247.75;5099189;28;20036;-73
2023/04/27 05:00:13;;;;;;;14.93;7.55;;;2.10;99.90;;;2.19;100.00;101248.84;5058304;28;20031;-74
2023/04/27 05:02:40;;;;;;;18.95;7.68;;;2.20;99.90;;;2.30;100.00;101256.75;5059834;28;20067;-76
2023/04/27 05:05:06;;;;;;;16.55;7.25;;;2.40;99.90;;;2.44;100.00;101260.81;5085704;28;20031;-73
2023/04/27 05:07:33;;;;;;;17.33;7.50;;;2.50;99.90;;;2.55;100.00;101259.78;5089724;28;20426;-73
2023/04/27 05:09:58;;;;;;;15.40;7.10;;;2.60;99.90;;;2.69;100.00;101253.03;5091525;28;20039;-73
2023/04/27 05:12:24;;;;;;;13.13;7.05;;;2.80;99.90;;;2.86;100.00;101258.59;5095106;28;20403;-73
2023/04/27 05:14:53;;;;;;;14.18;7.13;;;2.90;99.90;;;2.97;100.00;101265.63;5070657;28;20043;-74
2023/04/27 05:17:18;;;;;;;14.35;7.47;;;3.00;99.90;;;3.05;100.00;101259.50;5083535;28;20550;-73
2023/04/27 05:19:44;;;;;;;12.57;6.25;;;3.10;99.90;;;3.22;100.00;101269.44;5064382;28;20492;-73
2023/04/27 05:22:10;;;;;;;14.68;6.97;;;3.30;99.90;;;3.34;100.00;101267.38;5081801;28;20028;-72
2023/04/27 05:24:36;;;;;;;13.10;7.28;;;3.40;99.90;;;3.48;100.00;101274.09;5085128;28;20494;-73
2023/04/27 05:27:02;;;;;;;15.25;6.75;;;3.50;99.90;;;3.55;100.00;101274.28;5089477;28;20472;-72
2023/04/27 05:29:28;;;;;;;17.52;7.00;;;3.70;99.90;;;3.63;100.00;101270.81;5084914;28;20036;-76
2023/04/27 05:31:54;;;;;;;13.38;6.90;;;3.80;99.90;;;3.78;100.00;101276.50;5056542;28;20040;-74
2023/04/27 05:34:20;;;;;;;12.57;6.30;;;3.90;99.90;;;3.76;100.00;101255.09;5056877;28;20039;-75
2023/04/27 05:36:46;;;;;;;15.30;6.97;;;4.10;99.90;;;3.89;100.00;101266.31;5081907;28;20520;-73
2023/04/27 05:39:12;;;;;;;11.02;6.60;;;4.20;99.90;;;4.04;100.00;101268.44;5084239;28;20392;-72
2023/04/27 05:41:38;;;;;;;12.43;6.35;;;4.30;99.90;;;4.14;100.00;101271.03;5091543;28;20479;-73
2023/04/27 05:44:05;;;;;;;12.20;5.90;;;4.40;99.90;;;4.24;100.00;101270.91;5091072;28;20031;-74
2023/04/27 05:46:31;;;;;;;13.77;6.45;;;4.60;99.90;;;4.44;100.00;101280.47;5091811;28;20040;-72
2023/04/27 05:48:57;;;;;;;15.50;5.75;;;4.60;99.90;;;4.48;100.00;101270.22;5090069;28;20121;-74
2023/04/27 05:51:22;;;;;;;15.18;6.32;;;4.70;99.90;;;4.57;99.84;101260.28;5086460;28;20035;-75
2023/04/27 05:53:48;;;;;;;12.93;5.95;;;4.80;99.90;;;4.59;99.26;101288.84;5073379;28;20051;-73
2023/04/27 05:56:14;;;;;;;13.40;5.97;;;4.90;99.90;;;4.60;98.05;101289.69;5083125;28;20440;-74
2023/04/27 05:58:41;;;;;;;12.77;5.78;;;5.00;99.90;;;4.66;97.40;101256.59;5078641;28;20035;-74
2023/04/27 06:01:06;;;;;;;13.15;5.80;;;5.10;99.90;;;4.93;97.02;101270.88;5081233;28;20029;-74
2023/04/27 06:03:32;;;;;;;13.77;5.80;;;5.20;99.90;;;5.09;96.16;101285.50;5084103;28;20494;-74
2023/04/27 06:05:59;;;;;;;10.70;5.65;;;5.30;99.90;;;5.25;94.94;101288.22;5082741;28;20483;-74
2023/04/27 06:08:26;;;;;;;20.90;6.53;;;5.40;99.90;;;5.30;93.21;101275.06;5066344;28;20028;-74
2023/04/27 06:10:53;;;;;;;12.60;6.00;;;5.60;99.90;;;5.42;92.63;101277.44;5054375;28;20331;-74
2023/04/27 06:13:19;;;;;;;10.65;5.22;;;5.60;99.90;;;5.56;91.63;101284.03;5085646;28;20471;-74
2023/04/27 06:15:46;;;;;;;13.98;5.78;;;5.80;99.90;;;5.60;90.29;101278.13;5072197;28;20032;-74
2023/04/27 06:18:12;;;;;;;11.70;5.72;;;5.90;99.90;;;5.71;88.11;101270.69;5080329;28;20040;-75
2023/04/27 06:20:41;;;;;;;11.35;5.22;;;6.00;99.90;;;5.85;86.72;101266.44;5082037;28;20068;-74
2023/04/27 06:23:07;;;;;;;9.93;4.93;;;6.00;99.90;;;6.01;85.44;101280.00;5089338;28;20028;-74
2023/04/27 06:25:34;;;;;;;8.70;4.85;;;6.20;99.90;;;6.03;84.27;101283.38;5069637;28;20040;-75
2023/04/27 06:28:00;;;;;;;9.00;4.70;;;6.30;99.90;;;6.16;83.43;101287.41;5056882;28;20056;-74
2023/04/27 06:30:25;;;;;;;12.18;4.88;;;6.40;99.90;;;6.21;82.37;101276.91;5075113;28;20043;-74
2023/04/27 06:32:51;;;;;;;10.90;4.40;;;6.50;99.90;;;6.43;80.27;101282.63;5082248;28;20102;-73
2023/04/27 06:35:18;;;;;;;13.30;4.97;;;6.60;99.90;;;6.37;79.16;101276.06;5090512;28;20040;-74
2023/04/27 06:37:44;;;;;;;10.98;4.45;;;6.60;99.90;;;6.08;79.31;101290.16;5085905;28;20407;-75
2023/04/27 06:40:10;;;;;;;10.25;4.75;;;6.60;99.90;;;6.28;78.54;101280.63;5055479;28;20520;-75
2023/04/27 06:42:36;;;;;;;9.32;4.50;;;6.70;99.90;;;6.44;79.10;101279.75;5083851;28;20496;-75
2023/04/27 06:45:04;;;;;;;7.00;4.22;;;6.80;99.90;;;6.39;77.05;101265.03;5079748;28;20054;-75
2023/04/27 06:47:30;;;;;;;10.25;4.72;;;6.90;99.90;;;6.38;76.31;101272.31;5087288;28;20434;-75
2023/04/27 06:49:55;;;;;;;11.77;3.78;;;6.90;99.90;;;6.16;75.64;101280.16;5053527;28;20074;-76
2023/04/27 06:52:21;;;;;;;8.60;3.65;;;6.80;99.90;;;5.83;77.40;101263.88;5085793;28;20036;-76
2023/04/27 06:54:47;;;;;;;7.82;3.83;;;6.70;99.90;;;6.42;76.33;101272.78;5080635;28;20036;-75
2023/04/27 06:57:13;;;;;;;10.90;3.50;;;6.90;99.90;;;6.69;74.99;101287.81;5090408;28;20031;-75
2023/04/27 06:59:39;;;;;;;14.32;7.55;;;7.00;99.90;;;6.69;73.93;101270.66;5079823;28;20484;-76
2023/04/27 07:02:06;;;;;;;8.35;3.50;;;7.20;99.90;;;6.60;72.98;101281.56;5054074;28;20561;-76
2023/04/27 07:04:32;;;;;;;7.03;3.47;;;7.20;99.90;;;6.77;70.85;101276.09;5084132;28;20527;-74
2023/04/27 07:06:58;;;;;;;9.25;3.50;;;7.20;99.90;;;6.76;69.78;101272.50;5082532;28;20036;-78
2023/04/27 07:09:24;;;;;;;7.47;2.88;;;7.40;99.90;;;6.45;69.38;101277.88;5089194;28;20059;-75
2023/04/27 07:11:49;;;;;;;9.65;5.30;;;7.20;99.90;;;6.61;68.45;101272.41;5079487;28;20149;-78
2023/04/27 07:14:15;;;;;;;11.65;6.75;;;7.30;99.90;;;6.99;67.60;101268.16;5089989;28;20039;-75
2023/04/27 07:16:43;;;;;;;10.82;2.80;;;7.40;99.90;;;6.67;66.77;101259.16;5081663;28;20138;-76
2023/04/27 07:19:09;;;;;;;5.35;2.28;;;7.40;99.90;;;6.18;66.53;101271.84;5078262;28;20128;-77
2023/04/27 07:21:35;;;;;;;6.32;2.65;;;7.10;99.90;;;6.67;67.18;101265.44;5069814;28;20082;-75
2023/04/27 07:24:01;;;;;;;6.80;2.97;;;7.20;99.90;;;6.74;67.17;101271.84;5074924;28;20170;-77
2023/04/27 07:26:27;;;;;;;8.70;3.70;;;7.40;99.90;;;6.96;65.57;101261.22;5065587;28;20062;-80
2023/04/27 07:28:53;;;;;;;6.50;2.70;;;7.50;99.90;;;6.93;64.18;101241.75;5087301;28;20046;-77
2023/04/27 07:31:19;;;;;;;5.50;2.17;;;7.70;99.90;;;6.81;63.80;101269.28;5087544;28;20032;-77
2023/04/27 07:33:45;;;;;;;12.55;3.55;;;7.60;99.90;;;6.78;63.69;101271.47;5088260;28;20042;-77
2023/04/27 07:36:11;;;;;;;5.90;2.58;;;7.50;99.90;;;7.22;61.54;101260.06;5085744;28;20445;-81
2023/04/27 07:38:37;;;;;;;5.60;2.47;;;7.70;99.90;;;6.99;61.96;101262.72;5058568;28;20071;-75
2023/04/27 07:41:04;;;;;;;6.95;3.47;;;7.70;99.90;;;7.06;61.46;101263.72;5079851;28;20037;-78
2023/04/27 07:43:34;;;;;;;7.82;2.92;;;7.80;99.90;;;7.17;60.79;101252.44;5039785;28;20052;-77
2023/04/27 07:46:00;;;;;;;9.05;3.63;;;7.80;99.90;;;7.80;59.04;101269.63;5078414;28;20449;-77
2023/04/27 07:48:27;;;;;;;4.70;2.00;;;8.10;99.90;;;7.67;58.59;101267.53;5086612;28;20037;-77
2023/04/27 07:50:53;;;;;;;4.90;2.15;;;8.40;99.90;;;7.59;59.08;101280.16;5089210;28;20043;-74
2023/04/27 07:53:20;;;;;;;4.53;1.73;;;8.40;99.90;;;7.55;55.88;101262.53;5079929;28;20059;-77
2023/04/27 07:55:46;;;;;;;6.70;2.10;;;8.30;99.40;;;7.51;55.78;101258.50;5056575;28;20040;-77
2023/04/27 07:58:12;;;;;;;4.38;1.73;;;8.30;98.90;;;7.59;55.83;101257.59;5062150;28;20111;-79
2023/04/27 08:00:37;;;;;;;8.20;2.33;;;8.40;98.60;;;7.91;55.24;101256.44;5058677;28;20032;-77
2023/04/27 08:03:03;;;;;;;7.13;1.90;;;8.50;98.10;;;7.90;55.83;101257.47;5086519;28;20071;-81
2023/04/27 08:05:29;;;;;;;4.72;2.03;;;8.70;98.50;;;8.49;55.46;101258.63;5084398;28;20044;-76
2023/04/27 08:07:55;;;;;;;6.32;1.77;;;8.80;99.00;;;7.94;55.35;101257.09;5087370;28;20092;-79
2023/04/27 08:10:23;;;;;;;6.32;2.55;;;8.90;97.70;;;7.88;55.67;101256.00;5089408;28;20047;-76
2023/04/27 08:12:48;;;;;;;10.18;2.58;;;8.70;97.80;;;8.12;54.92;101216.00;5072476;28;20051;-76
2023/04/27 08:15:14;;;;;;;7.47;2.35;;;8.80;97.70;;;8.39;52.97;101243.56;5083356;28;20051;-77
2023/04/27 08:17:43;;;;;;;7.82;2.08;;;9.00;96.60;;;8.13;53.07;101256.56;5088861;28;20032;-78
2023/04/27 08:20:12;;;;;;;7.85;1.80;;;8.90;95.90;;;7.54;52.00;101225.56;5090724;28;20044;-76
2023/04/27 08:22:41;;;;;;;7.47;1.77;;;8.50;94.70;;;8.16;53.03;101247.22;5059257;28;20032;-77
2023/04/27 08:25:08;;;;;;;4.22;1.48;;;8.70;96.40;;;7.88;52.34;101243.22;5088081;28;20484;-77
2023/04/27 08:27:39;;;;;;;3.70;1.42;;;8.60;95.10;;;7.56;53.61;101249.78;5071456;28;20059;-76
2023/04/27 08:30:05;;;;;;;6.55;1.85;;;8.40;95.80;;;8.42;52.29;101244.03;5083812;28;20037;-77
2023/04/27 08:32:31;;;;;;;6.03;1.70;;;8.60;95.60;;;8.66;51.16;101223.03;5089153;28;20060;-77
2023/04/27 08:34:57;;;;;;;5.70;1.75;;;9.10;95.00;;;9.33;50.58;101221.06;5067463;28;20198;-75
2023/04/27 08:37:22;;;;;;;4.63;1.80;;;9.50;94.70;;;9.40;51.01;101233.91;5064044;28;20634;-76
2023/04/27 08:39:51;;;;;;;5.53;1.90;;;9.80;94.50;;;10.01;49.00;101219.72;5081882;28;20066;-76
2023/04/27 08:42:17;;;;;;;4.93;1.80;;;10.30;93.50;;;9.71;49.23;101233.56;5060087;28;20044;-77
2023/04/27 08:44:43;;;;;;;5.50;2.10;;;10.30;92.50;;;10.57;47.60;101204.34;5086234;28;20514;-82
2023/04/27 08:47:15;;;;;;;6.55;1.85;;;10.60;91.90;;;11.26;45.61;101200.75;5056786;28;20064;-76
2023/04/27 08:49:41;;;;;;;3.85;1.77;;;11.20;90.50;;;11.70;45.45;101217.63;5073383;28;20386;-77
2023/04/27 08:52:15;;;;;;;6.63;1.98;;;11.70;90.20;;;10.96;45.15;101203.84;5087263;28;20036;-76
2023/04/27 08:54:41;;;;;;;7.82;1.80;;;11.60;87.90;;;10.65;46.88;101209.63;5091667;28;20534;-77
2023/04/27 08:57:34;;;;;;;7.57;1.63;;;11.50;88.90;;;9.76;45.57;101202.97;5085553;28;20028;-77
2023/04/27 09:00:05;;;;;;;5.60;1.60;;;11.00;85.20;;;9.88;46.02;101212.31;5051128;28;20048;-78
2023/04/27 09:02:31;;;;;;;4.63;1.48;;;10.80;85.90;;;9.89;45.73;101197.63;5071236;28;20118;-78
2023/04/27 09:04:57;;;;;;;5.75;1.40;;;10.70;85.10;;;10.63;45.14;101210.88;5070579;28;20548;-78
2023/04/27 09:07:22;;;;;;;5.32;2.05;;;11.00;86.20;;;11.48;45.01;101209.63;5090607;28;20040;-79
2023/04/27 09:09:49;;;;;;;7.35;1.48;;;11.70;86.30;;;11.71;43.19;101202.88;5090525;28;20032;-77
2023/04/27 09:12:20;;;;;;;6.53;1.70;;;12.00;82.90;;;11.99;41.38;101199.91;5073202;28;20463;-77
2023/04/27 09:15:05;;;;;;;6.13;1.70;;;12.40;80.10;;;11.73;40.74;101201.59;5071578;28;20078;-78
2023/04/27 09:17:32;;;;;;;3.72;1.45;;;12.30;77.00;;;11.65;39.73;101189.00;5084502;28;20024;-76
2023/04/27 09:20:11;;;;;;;4.45;1.65;;;12.20;75.50;;;11.05;39.35;101170.69;5080330;28;20500;-77
2023/04/27 09:22:46;;;;;;;4.97;1.80;;;12.00;73.20;;;10.54;41.66;101185.66;5075802;28;20361;-77
2023/04/27 09:25:32;;;;;;;6.75;1.77;;;11.50;76.10;;;10.49;43.38;101208.09;5080561;28;20068;-79
2023/04/27 09:28:00;;;;;;;5.50;1.85;;;11.30;78.20;;;10.91;41.87;101199.84;5025638;28;996492;-79
2023/04/27 09:30:27;;;;;;;5.68;1.70;;;11.40;76.60;;;11.57;44.21;101221.19;5091116;28;20031;-79
2023/04/27 09:33:00;;;;;;;2.97;1.20;;;11.80;81.90;;;12.22;40.16;101180.34;5060293;28;20032;-78
2023/04/27 09:35:31;;;;;;;4.68;1.60;;;12.60;75.60;;;12.71;38.76;101168.13;5056576;28;20047;-77
2023/04/27 09:37:58;;;;;;;4.63;1.40;;;13.10;73.50;;;13.28;41.04;101192.88;5057819;28;20117;-78
2023/04/27 09:40:28;;;;;;;3.05;1.45;;;13.50;78.80;;;13.32;38.75;101174.94;5080058;28;20033;-79
2023/04/27 09:42:56;;;;;;;7.18;1.77;;;13.70;73.90;;;13.44;37.75;101172.34;5086178;28;20119;-79
2023/04/27 09:45:25;;;;;;;6.40;1.80;;;14.00;71.50;;;12.99;37.48;101173.22;5061818;28;20070;-78
2023/04/27 09:47:52;;;;;;;4.72;1.65;;;13.80;69.70;;;12.94;37.11;101167.59;5058211;28;20555;-79
2023/04/27 09:50:18;;;;;;;4.78;1.50;;;13.70;69.20;;;11.69;37.37;101167.56;5091812;28;20052;-78
2023/04/27 09:52:45;;;;;;;3.35;1.38;;;13.00;67.60;;;10.72;38.46;101149.63;5059100;28;20036;-77
2023/04/27 09:55:23;;;;;;;3.92;1.33;;;12.20;67.80;;;11.64;36.85;101164.63;5080448;28;20036;-78
2023/04/27 09:58:02;;;;;;;3.80;1.30;;;12.20;67.40;;;11.69;36.16;101156.63;5083173;28;20123;-78
2023/04/27 10:00:56;;;;;;;5.70;1.60;;;12.40;66.50;;;11.77;37.45;101171.97;5057229;28;20035;-77
2023/04/27 10:03:40;;;;;;;5.30;1.70;;;12.60;68.10;;;11.62;36.19;101164.81;5058775;28;20028;-78
2023/04/27 10:06:33;;;;;;;4.43;1.30;;;12.60;65.90;;;11.46;36.21;101151.59;5086889;28;20032;-80
2023/04/27 10:09:05;;;;;;;5.85;1.58;;;12.50;65.30;;;13.63;37.25;101164.16;5079296;28;20036;-79
2023/04/27 10:11:43;;;;;;;4.15;1.40;;;14.60;67.20;;;15.54;32.56;101154.97;5091197;28;20498;-78
2023/04/27 10:14:17;;;;;;;4.75;1.60;;;16.90;59.10;;;16.87;30.14;101135.22;5073211;28;20078;-78
2023/04/27 10:16:58;;;;;;;4.32;1.20;;;18.40;54.20;;;17.49;28.92;101125.25;5083447;28;20127;-78